sensor_id;sensor_type;location;lat;lon;timestamp;pressure;altitude;pressure_sealevel;temperature;humidity
64115;BME280;62188;35.640;139.748;2022-10-23T00:00:33;101085.66;;;27.78;26.51
64115;BME280;62188;35.640;139.748;2022-10-23T00:02:58;101084.15;;;27.72;26.70
64115;BME280;62188;35.640;139.748;2022-10-23T00:05:24;101080.11;;;27.88;26.41
64115;BME280;62188;35.640;139.748;2022-10-23T00:07:52;101080.37;;;28.32;26.24
64115;BME280;62188;35.640;139.748;2022-10-23T00:10:15;101080.92;;;28.05;26.31
64115;BME280;62188;35.640;139.748;2022-10-23T00:12:40;101082.75;;;28.05;26.17
64115;BME280;62188;35.640;139.748;2022-10-23T00:15:06;101078.55;;;28.17;26.18
64115;BME280;62188;35.640;139.748;2022-10-23T00:17:31;101081.11;;;28.28;26.24
64115;BME280;62188;35.640;139.748;2022-10-23T00:19:57;101083.08;;;28.52;25.69
64115;BME280;62188;35.640;139.748;2022-10-23T00:22:22;101082.71;;;28.41;25.86
64115;BME280;62188;35.640;139.748;2022-10-23T00:24:47;101078.47;;;28.45;25.47
64115;BME280;62188;35.640;139.748;2022-10-23T00:27:13;101074.18;;;28.46;25.54
64115;BME280;62188;35.640;139.748;2022-10-23T00:29:38;101072.08;;;28.38;25.02
64115;BME280;62188;35.640;139.748;2022-10-23T00:32:03;101069.54;;;28.57;25.52
64115;BME280;62188;35.640;139.748;2022-10-23T00:34:29;101063.89;;;28.40;25.53
64115;BME280;62188;35.640;139.748;2022-10-23T00:36:54;101060.94;;;28.28;25.13
64115;BME280;62188;35.640;139.748;2022-10-23T00:39:20;101053.98;;;28.70;25.50
64115;BME280;62188;35.640;139.748;2022-10-23T00:41:45;101048.73;;;28.98;24.90
64115;BME280;62188;35.640;139.748;2022-10-23T00:46:36;101044.06;;;28.78;25.00
64115;BME280;62188;35.640;139.748;2022-10-23T00:49:01;101037.81;;;29.00;24.27
64115;BME280;62188;35.640;139.748;2022-10-23T00:51:30;101034.51;;;28.80;24.53
64115;BME280;62188;35.640;139.748;2022-10-23T00:53:56;101033.87;;;28.74;24.83
64115;BME280;62188;35.640;139.748;2022-10-23T00:56:17;101030.66;;;29.05;24.50
64115;BME280;62188;35.640;139.748;2022-10-23T00:58:42;101028.70;;;29.26;23.98
64115;BME280;62188;35.640;139.748;2022-10-23T01:01:16;101032.25;;;29.46;24.00
64115;BME280;62188;35.640;139.748;2022-10-23T01:03:33;101031.00;;;29.29;24.17
64115;BME280;62188;35.640;139.748;2022-10-23T01:06:04;101028.67;;;29.48;24.00
64115;BME280;62188;35.640;139.748;2022-10-23T01:08:28;101026.69;;;29.65;24.33
64115;BME280;62188;35.640;139.748;2022-10-23T01:10:55;101026.95;;;29.71;24.30
64115;BME280;62188;35.640;139.748;2022-10-23T01:13:20;101023.30;;;29.62;24.37
64115;BME280;62188;35.640;139.748;2022-10-23T01:15:43;101017.54;;;29.74;23.94
64115;BME280;62188;35.640;139.748;2022-10-23T01:18:10;101017.49;;;30.51;24.00
64115;BME280;62188;35.640;139.748;2022-10-23T01:20:39;101010.14;;;30.20;24.06
64115;BME280;62188;35.640;139.748;2022-10-23T01:23:09;101008.45;;;30.38;24.38
64115;BME280;62188;35.640;139.748;2022-10-23T01:25:27;101006.04;;;30.40;24.28
64115;BME280;62188;35.640;139.748;2022-10-23T01:27:49;101001.14;;;30.59;23.07
64115;BME280;62188;35.640;139.748;2022-10-23T01:30:13;100998.98;;;30.68;23.46
64115;BME280;62188;35.640;139.748;2022-10-23T01:32:41;100986.74;;;30.63;23.51
64115;BME280;62188;35.640;139.748;2022-10-23T01:35:04;100979.36;;;30.78;23.48
64115;BME280;62188;35.640;139.748;2022-10-23T01:37:29;100976.33;;;30.50;23.39
64115;BME280;62188;35.640;139.748;2022-10-23T01:39:54;100973.83;;;31.05;23.56
64115;BME280;62188;35.640;139.748;2022-10-23T01:42:20;100972.24;;;30.81;24.39
64115;BME280;62188;35.640;139.748;2022-10-23T01:44:44;100975.05;;;30.91;24.15
64115;BME280;62188;35.640;139.748;2022-10-23T01:47:08;100972.68;;;31.22;23.77
64115;BME280;62188;35.640;139.748;2022-10-23T01:49:33;100970.29;;;30.88;23.51
64115;BME280;62188;35.640;139.748;2022-10-23T01:52:00;100965.05;;;31.19;22.84
64115;BME280;62188;35.640;139.748;2022-10-23T01:54:28;100962.14;;;30.63;22.84
64115;BME280;62188;35.640;139.748;2022-10-23T01:56:50;100963.97;;;30.49;23.25
64115;BME280;62188;35.640;139.748;2022-10-23T01:59:18;100961.94;;;30.25;22.71
64115;BME280;62188;35.640;139.748;2022-10-23T02:01:40;100957.69;;;30.14;22.34
64115;BME280;62188;35.640;139.748;2022-10-23T02:04:06;100958.13;;;30.07;22.52
64115;BME280;62188;35.640;139.748;2022-10-23T02:06:30;100952.65;;;30.22;22.70
64115;BME280;62188;35.640;139.748;2022-10-23T02:08:55;100949.58;;;29.72;22.08
64115;BME280;62188;35.640;139.748;2022-10-23T02:11:21;100943.55;;;29.66;22.83
64115;BME280;62188;35.640;139.748;2022-10-23T02:13:50;100939.93;;;28.88;23.18
64115;BME280;62188;35.640;139.748;2022-10-23T02:16:19;100932.65;;;29.47;23.73
64115;BME280;62188;35.640;139.748;2022-10-23T02:18:45;100928.59;;;29.34;23.59
64115;BME280;62188;35.640;139.748;2022-10-23T02:21:08;100928.42;;;29.67;23.06
64115;BME280;62188;35.640;139.748;2022-10-23T02:23:32;100928.82;;;29.01;23.53
64115;BME280;62188;35.640;139.748;2022-10-23T02:25:55;100927.56;;;29.20;23.50
64115;BME280;62188;35.640;139.748;2022-10-23T02:28:22;100926.72;;;29.42;24.02
64115;BME280;62188;35.640;139.748;2022-10-23T02:30:46;100923.21;;;29.81;23.78
64115;BME280;62188;35.640;139.748;2022-10-23T02:33:09;100917.63;;;29.85;24.42
64115;BME280;62188;35.640;139.748;2022-10-23T02:35:34;100911.96;;;29.62;23.39
64115;BME280;62188;35.640;139.748;2022-10-23T02:38:00;100910.46;;;29.43;23.75
64115;BME280;62188;35.640;139.748;2022-10-23T02:40:30;100904.62;;;29.32;23.30
64115;BME280;62188;35.640;139.748;2022-10-23T02:42:53;100902.78;;;29.81;23.14
64115;BME280;62188;35.640;139.748;2022-10-23T02:45:20;100900.34;;;29.92;22.70
64115;BME280;62188;35.640;139.748;2022-10-23T02:47:49;100898.07;;;30.41;22.27
64115;BME280;62188;35.640;139.748;2022-10-23T02:50:13;100895.12;;;30.46;23.02
64115;BME280;62188;35.640;139.748;2022-10-23T02:52:37;100891.58;;;30.74;23.05
64115;BME280;62188;35.640;139.748;2022-10-23T02:55:07;100885.52;;;30.68;22.72
64115;BME280;62188;35.640;139.748;2022-10-23T02:57:28;100876.06;;;30.81;22.47
64115;BME280;62188;35.640;139.748;2022-10-23T02:59:55;100867.28;;;30.72;20.98
64115;BME280;62188;35.640;139.748;2022-10-23T03:02:17;100858.69;;;30.56;21.02
64115;BME280;62188;35.640;139.748;2022-10-23T03:04:39;100853.84;;;30.94;20.58
64115;BME280;62188;35.640;139.748;2022-10-23T03:07:04;100852.79;;;30.89;20.53
64115;BME280;62188;35.640;139.748;2022-10-23T03:09:29;100851.57;;;30.61;20.65
64115;BME280;62188;35.640;139.748;2022-10-23T03:11:54;100843.18;;;30.61;20.96
64115;BME280;62188;35.640;139.748;2022-10-23T03:14:19;100832.54;;;31.13;19.78
64115;BME280;62188;35.640;139.748;2022-10-23T03:16:44;100827.06;;;30.53;20.27
64115;BME280;62188;35.640;139.748;2022-10-23T03:19:11;100820.39;;;31.16;20.76
64115;BME280;62188;35.640;139.748;2022-10-23T03:21:35;100815.76;;;30.86;19.87
64115;BME280;62188;35.640;139.748;2022-10-23T03:24:01;100812.11;;;30.74;20.36
64115;BME280;62188;35.640;139.748;2022-10-23T03:26:26;100811.27;;;30.49;21.06
64115;BME280;62188;35.640;139.748;2022-10-23T03:28:51;100806.40;;;30.41;20.81
64115;BME280;62188;35.640;139.748;2022-10-23T03:31:16;100802.47;;;30.58;20.46
64115;BME280;62188;35.640;139.748;2022-10-23T03:33:41;100799.76;;;30.63;19.89
64115;BME280;62188;35.640;139.748;2022-10-23T03:36:07;100798.51;;;30.51;20.12
64115;BME280;62188;35.640;139.748;2022-10-23T03:38:32;100794.08;;;30.62;20.60
64115;BME280;62188;35.640;139.748;2022-10-23T03:40:58;100787.49;;;30.27;20.95
64115;BME280;62188;35.640;139.748;2022-10-23T03:43:23;100782.30;;;29.87;20.87
64115;BME280;62188;35.640;139.748;2022-10-23T03:45:48;100775.38;;;30.68;20.90
64115;BME280;62188;35.640;139.748;2022-10-23T03:48:14;100769.55;;;30.41;20.63
64115;BME280;62188;35.640;139.748;2022-10-23T03:50:39;100762.26;;;30.39;20.92
64115;BME280;62188;35.640;139.748;2022-10-23T03:53:04;100759.89;;;30.35;20.63
64115;BME280;62188;35.640;139.748;2022-10-23T03:55:30;100759.62;;;30.29;20.72
64115;BME280;62188;35.640;139.748;2022-10-23T03:57:55;100750.35;;;30.70;20.44
64115;BME280;62188;35.640;139.748;2022-10-23T04:00:20;100743.29;;;30.43;20.67
64115;BME280;62188;35.640;139.748;2022-10-23T04:02:45;100740.12;;;30.21;20.27
64115;BME280;62188;35.640;139.748;2022-10-23T04:05:11;100739.23;;;29.88;19.96
64115;BME280;62188;35.640;139.748;2022-10-23T04:07:36;100731.56;;;30.34;19.58
64115;BME280;62188;35.640;139.748;2022-10-23T04:10:02;100727.70;;;30.42;19.52
64115;BME280;62188;35.640;139.748;2022-10-23T04:12:27;100725.98;;;30.45;19.80
64115;BME280;62188;35.640;139.748;2022-10-23T04:14:52;100721.30;;;30.35;19.90
64115;BME280;62188;35.640;139.748;2022-10-23T04:17:17;100716.08;;;30.40;19.33
64115;BME280;62188;35.640;139.748;2022-10-23T04:19:43;100709.45;;;30.14;19.08
64115;BME280;62188;35.640;139.748;2022-10-23T04:22:08;100703.29;;;30.16;19.64
64115;BME280;62188;35.640;139.748;2022-10-23T04:24:33;100701.73;;;30.36;19.45
64115;BME280;62188;35.640;139.748;2022-10-23T04:26:58;100696.16;;;29.94;19.34
64115;BME280;62188;35.640;139.748;2022-10-23T04:29:23;100692.15;;;30.05;19.54
64115;BME280;62188;35.640;139.748;2022-10-23T04:31:49;100689.87;;;29.69;19.26
64115;BME280;62188;35.640;139.748;2022-10-23T04:34:14;100688.21;;;29.37;19.78
64115;BME280;62188;35.640;139.748;2022-10-23T04:36:39;100684.71;;;29.13;19.64
64115;BME280;62188;35.640;139.748;2022-10-23T04:39:05;100680.12;;;29.10;19.74
64115;BME280;62188;35.640;139.748;2022-10-23T04:41:30;100680.45;;;28.87;20.01
64115;BME280;62188;35.640;139.748;2022-10-23T04:43:56;100678.51;;;28.90;20.36
64115;BME280;62188;35.640;139.748;2022-10-23T04:46:21;100680.25;;;28.74;20.77
64115;BME280;62188;35.640;139.748;2022-10-23T04:48:46;100682.21;;;28.38;21.03
64115;BME280;62188;35.640;139.748;2022-10-23T04:51:12;100679.92;;;27.95;21.31
64115;BME280;62188;35.640;139.748;2022-10-23T04:53:37;100673.90;;;28.26;21.39
64115;BME280;62188;35.640;139.748;2022-10-23T04:56:02;100673.14;;;27.58;21.60
64115;BME280;62188;35.640;139.748;2022-10-23T04:58:29;100672.92;;;27.51;21.83
64115;BME280;62188;35.640;139.748;2022-10-23T05:00:53;100668.41;;;27.70;21.79
64115;BME280;62188;35.640;139.748;2022-10-23T05:03:19;100665.43;;;27.53;22.25
64115;BME280;62188;35.640;139.748;2022-10-23T05:05:44;100663.87;;;27.77;22.45
64115;BME280;62188;35.640;139.748;2022-10-23T05:08:09;100664.56;;;27.30;22.33
64115;BME280;62188;35.640;139.748;2022-10-23T05:10:34;100662.09;;;27.20;22.88
64115;BME280;62188;35.640;139.748;2022-10-23T05:13:00;100665.09;;;27.21;23.17
64115;BME280;62188;35.640;139.748;2022-10-23T05:15:25;100667.89;;;27.30;23.22
64115;BME280;62188;35.640;139.748;2022-10-23T05:17:52;100666.58;;;27.32;22.88
64115;BME280;62188;35.640;139.748;2022-10-23T05:20:19;100662.10;;;27.35;22.53
64115;BME280;62188;35.640;139.748;2022-10-23T05:22:41;100657.99;;;27.24;22.88
64115;BME280;62188;35.640;139.748;2022-10-23T05:25:06;100656.10;;;26.97;22.72
64115;BME280;62188;35.640;139.748;2022-10-23T05:27:31;100657.81;;;26.97;22.41
64115;BME280;62188;35.640;139.748;2022-10-23T05:29:56;100657.61;;;27.44;22.50
64115;BME280;62188;35.640;139.748;2022-10-23T05:32:21;100654.73;;;27.07;22.91
64115;BME280;62188;35.640;139.748;2022-10-23T05:34:47;100654.65;;;26.92;22.98
64115;BME280;62188;35.640;139.748;2022-10-23T05:37:13;100657.56;;;26.84;22.83
64115;BME280;62188;35.640;139.748;2022-10-23T05:39:37;100647.34;;;26.93;22.77
64115;BME280;62188;35.640;139.748;2022-10-23T05:42:03;100645.26;;;26.90;22.92
64115;BME280;62188;35.640;139.748;2022-10-23T05:44:28;100647.54;;;26.92;23.06
64115;BME280;62188;35.640;139.748;2022-10-23T05:46:53;100649.97;;;26.88;23.19
64115;BME280;62188;35.640;139.748;2022-10-23T05:49:19;100648.81;;;26.58;23.69
64115;BME280;62188;35.640;139.748;2022-10-23T05:51:44;100648.46;;;26.56;23.63
64115;BME280;62188;35.640;139.748;2022-10-23T05:54:09;100648.48;;;26.54;23.91
64115;BME280;62188;35.640;139.748;2022-10-23T05:56:35;100647.53;;;26.22;23.79
64115;BME280;62188;35.640;139.748;2022-10-23T05:59:01;100649.05;;;26.73;24.12
64115;BME280;62188;35.640;139.748;2022-10-23T06:01:26;100649.86;;;26.77;24.23
64115;BME280;62188;35.640;139.748;2022-10-23T06:03:50;100648.79;;;26.81;24.11
64115;BME280;62188;35.640;139.748;2022-10-23T06:06:16;100646.57;;;26.56;24.20
64115;BME280;62188;35.640;139.748;2022-10-23T06:08:41;100648.19;;;26.75;25.33
64115;BME280;62188;35.640;139.748;2022-10-23T06:11:09;100646.37;;;26.60;26.84
64115;BME280;62188;35.640;139.748;2022-10-23T06:13:32;100644.05;;;26.53;27.53
64115;BME280;62188;35.640;139.748;2022-10-23T06:15:57;100644.02;;;26.29;27.83
64115;BME280;62188;35.640;139.748;2022-10-23T06:18:23;100644.99;;;26.27;27.90
64115;BME280;62188;35.640;139.748;2022-10-23T06:20:48;100646.26;;;26.49;28.07
64115;BME280;62188;35.640;139.748;2022-10-23T06:23:13;100646.70;;;26.21;28.74
64115;BME280;62188;35.640;139.748;2022-10-23T06:25:39;100645.61;;;26.21;28.61
64115;BME280;62188;35.640;139.748;2022-10-23T06:28:04;100647.08;;;26.58;28.45
64115;BME280;62188;35.640;139.748;2022-10-23T06:30:30;100650.23;;;26.18;29.01
64115;BME280;62188;35.640;139.748;2022-10-23T06:32:55;100652.80;;;26.25;29.51
64115;BME280;62188;35.640;139.748;2022-10-23T06:35:21;100653.15;;;25.84;29.92
64115;BME280;62188;35.640;139.748;2022-10-23T06:37:46;100653.64;;;26.07;29.99
64115;BME280;62188;35.640;139.748;2022-10-23T06:40:12;100655.52;;;25.74;29.71
64115;BME280;62188;35.640;139.748;2022-10-23T06:42:37;100656.68;;;25.66;29.55
64115;BME280;62188;35.640;139.748;2022-10-23T06:45:03;100657.14;;;25.81;29.58
64115;BME280;62188;35.640;139.748;2022-10-23T06:47:28;100656.18;;;25.42;29.77
64115;BME280;62188;35.640;139.748;2022-10-23T06:49:54;100662.03;;;25.38;29.90
64115;BME280;62188;35.640;139.748;2022-10-23T06:52:20;100662.91;;;25.83;29.96
64115;BME280;62188;35.640;139.748;2022-10-23T06:54:45;100661.76;;;25.84;30.05
64115;BME280;62188;35.640;139.748;2022-10-23T06:57:10;100663.99;;;25.34;29.96
64115;BME280;62188;35.640;139.748;2022-10-23T06:59:36;100667.87;;;25.80;29.87
64115;BME280;62188;35.640;139.748;2022-10-23T07:02:02;100669.04;;;25.79;29.66
64115;BME280;62188;35.640;139.748;2022-10-23T07:04:27;100670.20;;;25.75;29.22
64115;BME280;62188;35.640;139.748;2022-10-23T07:06:55;100674.65;;;25.72;29.15
64115;BME280;62188;35.640;139.748;2022-10-23T07:09:18;100675.60;;;25.66;29.23
64115;BME280;62188;35.640;139.748;2022-10-23T07:11:43;100672.49;;;25.54;29.23
64115;BME280;62188;35.640;139.748;2022-10-23T07:14:09;100674.55;;;25.31;29.06
64115;BME280;62188;35.640;139.748;2022-10-23T07:16:34;100676.08;;;25.18;28.95
64115;BME280;62188;35.640;139.748;2022-10-23T07:19:00;100676.46;;;25.43;29.06
64115;BME280;62188;35.640;139.748;2022-10-23T07:21:24;100679.18;;;25.48;28.86
64115;BME280;62188;35.640;139.748;2022-10-23T07:23:49;100680.96;;;25.47;28.66
64115;BME280;62188;35.640;139.748;2022-10-23T07:26:15;100683.73;;;25.39;28.58
64115;BME280;62188;35.640;139.748;2022-10-23T07:28:41;100687.94;;;25.35;28.61
64115;BME280;62188;35.640;139.748;2022-10-23T07:31:05;100686.52;;;25.34;28.59
64115;BME280;62188;35.640;139.748;2022-10-23T07:33:31;100686.82;;;25.13;28.70
64115;BME280;62188;35.640;139.748;2022-10-23T07:35:56;100689.58;;;25.37;28.72
64115;BME280;62188;35.640;139.748;2022-10-23T07:38:21;100692.61;;;25.39;28.94
64115;BME280;62188;35.640;139.748;2022-10-23T07:40:47;100693.58;;;25.42;28.86
64115;BME280;62188;35.640;139.748;2022-10-23T07:43:12;100694.64;;;25.41;28.92
64115;BME280;62188;35.640;139.748;2022-10-23T07:45:38;100696.74;;;25.38;28.89
64115;BME280;62188;35.640;139.748;2022-10-23T07:48:03;100697.89;;;25.35;28.77
64115;BME280;62188;35.640;139.748;2022-10-23T07:50:28;100699.52;;;25.29;28.82
64115;BME280;62188;35.640;139.748;2022-10-23T07:52:54;100701.10;;;25.27;29.09
64115;BME280;62188;35.640;139.748;2022-10-23T07:55:19;100699.55;;;25.27;29.14
64115;BME280;62188;35.640;139.748;2022-10-23T07:57:45;100696.89;;;25.21;29.25
64115;BME280;62188;35.640;139.748;2022-10-23T08:00:11;100694.08;;;25.20;29.62
64115;BME280;62188;35.640;139.748;2022-10-23T08:02:36;100696.07;;;25.22;29.82
64115;BME280;62188;35.640;139.748;2022-10-23T08:05:00;100691.24;;;25.31;30.04
64115;BME280;62188;35.640;139.748;2022-10-23T08:07:25;100691.64;;;25.29;30.06
64115;BME280;62188;35.640;139.748;2022-10-23T08:09:51;100693.83;;;25.36;30.21
64115;BME280;62188;35.640;139.748;2022-10-23T08:12:17;100698.14;;;25.35;30.35
64115;BME280;62188;35.640;139.748;2022-10-23T08:14:42;100700.99;;;25.30;30.58
64115;BME280;62188;35.640;139.748;2022-10-23T08:17:08;100701.14;;;25.48;30.71
64115;BME280;62188;35.640;139.748;2022-10-23T08:19:33;100700.33;;;25.30;30.77
64115;BME280;62188;35.640;139.748;2022-10-23T08:21:58;100697.67;;;25.37;30.64
64115;BME280;62188;35.640;139.748;2022-10-23T08:24:24;100699.24;;;25.39;30.51
64115;BME280;62188;35.640;139.748;2022-10-23T08:26:49;100704.05;;;25.38;30.46
64115;BME280;62188;35.640;139.748;2022-10-23T08:29:14;100706.02;;;25.38;30.42
64115;BME280;62188;35.640;139.748;2022-10-23T08:31:40;100712.20;;;25.38;30.29
64115;BME280;62188;35.640;139.748;2022-10-23T08:34:05;100714.67;;;25.59;30.33
64115;BME280;62188;35.640;139.748;2022-10-23T08:36:30;100719.08;;;25.37;30.39
64115;BME280;62188;35.640;139.748;2022-10-23T08:38:57;100719.06;;;25.60;30.21
64115;BME280;62188;35.640;139.748;2022-10-23T08:41:26;100720.63;;;25.16;30.24
64115;BME280;62188;35.640;139.748;2022-10-23T08:43:48;100722.99;;;25.44;30.28
64115;BME280;62188;35.640;139.748;2022-10-23T08:46:15;100728.31;;;25.43;30.33
64115;BME280;62188;35.640;139.748;2022-10-23T08:48:40;100731.60;;;25.42;30.37
64115;BME280;62188;35.640;139.748;2022-10-23T08:51:09;100735.36;;;25.11;30.43
64115;BME280;62188;35.640;139.748;2022-10-23T08:53:31;100738.26;;;25.20;30.41
64115;BME280;62188;35.640;139.748;2022-10-23T08:55:58;100740.46;;;25.34;30.21
64115;BME280;62188;35.640;139.748;2022-10-23T08:58:23;100738.83;;;24.98;30.25
64115;BME280;62188;35.640;139.748;2022-10-23T09:00:45;100740.85;;;25.00;30.34
64115;BME280;62188;35.640;139.748;2022-10-23T09:03:12;100743.39;;;24.99;30.44
64115;BME280;62188;35.640;139.748;2022-10-23T09:05:43;100743.94;;;24.98;30.51
64115;BME280;62188;35.640;139.748;2022-10-23T09:08:19;100745.65;;;25.20;30.56
64115;BME280;62188;35.640;139.748;2022-10-23T09:10:33;100746.89;;;24.94;30.71
64115;BME280;62188;35.640;139.748;2022-10-23T09:12:51;100749.12;;;25.15;30.75
64115;BME280;62188;35.640;139.748;2022-10-23T09:15:23;100749.18;;;24.92;30.83
64115;BME280;62188;35.640;139.748;2022-10-23T09:17:43;100750.69;;;24.74;31.10
64115;BME280;62188;35.640;139.748;2022-10-23T09:20:15;100747.39;;;24.71;31.22
64115;BME280;62188;35.640;139.748;2022-10-23T09:22:32;100750.20;;;25.23;31.27
64115;BME280;62188;35.640;139.748;2022-10-23T09:24:57;100750.43;;;24.98;31.48
64115;BME280;62188;35.640;139.748;2022-10-23T09:27:23;100752.05;;;24.73;31.50
64115;BME280;62188;35.640;139.748;2022-10-23T09:29:49;100751.48;;;24.97;31.62
64115;BME280;62188;35.640;139.748;2022-10-23T09:32:13;100750.86;;;24.72;31.66
64115;BME280;62188;35.640;139.748;2022-10-23T09:34:50;100750.23;;;24.72;31.81
64115;BME280;62188;35.640;139.748;2022-10-23T09:39:32;100754.45;;;24.79;31.86
64115;BME280;62188;35.640;139.748;2022-10-23T09:41:56;100753.48;;;24.77;31.95
64115;BME280;62188;35.640;139.748;2022-10-23T09:44:22;100756.47;;;24.80;31.92
64115;BME280;62188;35.640;139.748;2022-10-23T09:46:47;100761.06;;;24.79;31.80
64115;BME280;62188;35.640;139.748;2022-10-23T09:49:17;100764.89;;;24.82;31.82
64115;BME280;62188;35.640;139.748;2022-10-23T09:51:38;100762.81;;;25.00;31.60
64115;BME280;62188;35.640;139.748;2022-10-23T09:54:03;100764.93;;;25.00;31.69
64115;BME280;62188;35.640;139.748;2022-10-23T09:56:32;100763.85;;;24.72;31.69
64115;BME280;62188;35.640;139.748;2022-10-23T09:58:56;100768.51;;;24.91;31.94
64115;BME280;62188;35.640;139.748;2022-10-23T10:01:26;100768.63;;;24.68;31.85
64115;BME280;62188;35.640;139.748;2022-10-23T10:03:50;100768.52;;;24.96;32.01
64115;BME280;62188;35.640;139.748;2022-10-23T10:06:20;100770.49;;;24.75;31.99
64115;BME280;62188;35.640;139.748;2022-10-23T10:08:42;100771.53;;;24.99;32.14
64115;BME280;62188;35.640;139.748;2022-10-23T10:11:03;100773.39;;;24.92;32.35
64115;BME280;62188;35.640;139.748;2022-10-23T10:15:56;100775.68;;;24.80;32.73
64115;BME280;62188;35.640;139.748;2022-10-23T10:18:23;100775.44;;;24.71;32.90
64115;BME280;62188;35.640;139.748;2022-10-23T10:20:53;100776.05;;;24.78;32.97
64115;BME280;62188;35.640;139.748;2022-10-23T10:23:16;100776.85;;;24.79;33.08
64115;BME280;62188;35.640;139.748;2022-10-23T10:25:36;100779.37;;;24.52;33.23
64115;BME280;62188;35.640;139.748;2022-10-23T10:28:09;100783.66;;;24.52;33.40
64115;BME280;62188;35.640;139.748;2022-10-23T10:30:25;100783.09;;;24.77;33.51
64115;BME280;62188;35.640;139.748;2022-10-23T10:32:56;100782.74;;;24.50;33.70
64115;BME280;62188;35.640;139.748;2022-10-23T10:35:24;100785.90;;;24.78;33.80
64115;BME280;62188;35.640;139.748;2022-10-23T10:37:50;100786.27;;;25.06;33.86
64115;BME280;62188;35.640;139.748;2022-10-23T10:40:12;100787.39;;;24.56;33.96
64115;BME280;62188;35.640;139.748;2022-10-23T10:42:42;100784.42;;;24.69;34.24
64115;BME280;62188;35.640;139.748;2022-10-23T10:45:11;100785.99;;;24.72;34.41
64115;BME280;62188;35.640;139.748;2022-10-23T10:47:29;100787.93;;;24.69;34.53
64115;BME280;62188;35.640;139.748;2022-10-23T10:49:57;100790.09;;;24.51;34.64
64115;BME280;62188;35.640;139.748;2022-10-23T10:52:21;100793.83;;;25.01;34.76
64115;BME280;62188;35.640;139.748;2022-10-23T10:54:55;100797.59;;;24.77;34.83
64115;BME280;62188;35.640;139.748;2022-10-23T10:57:11;100798.79;;;24.76;34.96
64115;BME280;62188;35.640;139.748;2022-10-23T10:59:34;100797.54;;;25.00;35.00
64115;BME280;62188;35.640;139.748;2022-10-23T11:02:01;100798.12;;;24.50;35.04
64115;BME280;62188;35.640;139.748;2022-10-23T11:04:29;100801.81;;;24.47;35.16
64115;BME280;62188;35.640;139.748;2022-10-23T11:06:51;100804.29;;;24.70;35.30
64115;BME280;62188;35.640;139.748;2022-10-23T11:09:19;100806.53;;;24.71;35.18
64115;BME280;62188;35.640;139.748;2022-10-23T11:11:40;100804.45;;;24.73;35.14
64115;BME280;62188;35.640;139.748;2022-10-23T11:14:04;100807.02;;;24.67;35.18
64115;BME280;62188;35.640;139.748;2022-10-23T11:16:32;100806.97;;;24.62;35.15
64115;BME280;62188;35.640;139.748;2022-10-23T11:19:02;100807.88;;;24.60;35.13
64115;BME280;62188;35.640;139.748;2022-10-23T11:21:26;100805.38;;;24.39;35.12
64115;BME280;62188;35.640;139.748;2022-10-23T11:23:56;100805.44;;;24.65;35.11
64115;BME280;62188;35.640;139.748;2022-10-23T11:26:18;100806.36;;;24.63;35.01
64115;BME280;62188;35.640;139.748;2022-10-23T11:28:48;100802.82;;;24.65;35.03
64115;BME280;62188;35.640;139.748;2022-10-23T11:31:10;100804.68;;;24.42;35.01
64115;BME280;62188;35.640;139.748;2022-10-23T11:36:03;100804.57;;;24.68;34.91
64115;BME280;62188;35.640;139.748;2022-10-23T11:38:22;100806.84;;;24.45;34.93
64115;BME280;62188;35.640;139.748;2022-10-23T11:40:46;100808.06;;;24.67;34.91
64115;BME280;62188;35.640;139.748;2022-10-23T11:43:10;100807.51;;;24.67;34.90
64115;BME280;62188;35.640;139.748;2022-10-23T11:45:36;100809.49;;;24.44;34.84
64115;BME280;62188;35.640;139.748;2022-10-23T11:48:03;100810.55;;;24.42;34.93
64115;BME280;62188;35.640;139.748;2022-10-23T11:50:29;100812.69;;;24.42;34.93
64115;BME280;62188;35.640;139.748;2022-10-23T11:53:00;100811.77;;;24.56;35.04
64115;BME280;62188;35.640;139.748;2022-10-23T11:55:19;100813.83;;;24.63;35.09
64115;BME280;62188;35.640;139.748;2022-10-23T11:57:42;100812.91;;;24.40;35.00
64115;BME280;62188;35.640;139.748;2022-10-23T12:02:35;100813.38;;;24.62;35.17
64115;BME280;62188;35.640;139.748;2022-10-23T12:05:01;100817.17;;;24.62;35.24
64115;BME280;62188;35.640;139.748;2022-10-23T12:07:25;100816.40;;;24.48;35.51
64115;BME280;62188;35.640;139.748;2022-10-23T12:09:55;100815.58;;;24.53;35.54
64115;BME280;62188;35.640;139.748;2022-10-23T12:12:25;100816.60;;;24.29;35.66
64115;BME280;62188;35.640;139.748;2022-10-23T12:14:41;100822.89;;;24.53;35.83
64115;BME280;62188;35.640;139.748;2022-10-23T12:21:58;100839.09;;;24.79;35.93
64115;BME280;62188;35.640;139.748;2022-10-23T12:24:35;100843.33;;;24.55;36.05
64115;BME280;62188;35.640;139.748;2022-10-23T12:26:59;100843.92;;;24.47;36.31
64115;BME280;62188;35.640;139.748;2022-10-23T12:29:20;100856.22;;;24.72;36.41
64115;BME280;62188;35.640;139.748;2022-10-23T12:31:44;100857.10;;;24.69;36.60
64115;BME280;62188;35.640;139.748;2022-10-23T12:34:13;100856.27;;;24.13;36.40
64115;BME280;62188;35.640;139.748;2022-10-23T12:36:40;100856.90;;;24.25;36.50